createdAt,value
2022-09-04T00:01:45.702Z,13.94
2022-09-04T00:04:24.299Z,13.87
2022-09-04T00:07:02.514Z,13.86
2022-09-04T00:09:41.066Z,13.87
2022-09-04T00:12:10.817Z,13.87
2022-09-04T00:14:44.347Z,13.81
2022-09-04T00:17:20.283Z,13.82
2022-09-04T00:19:53.938Z,13.76
2022-09-04T00:22:29.462Z,13.76
2022-09-04T00:25:04.389Z,13.74
2022-09-04T00:27:44.152Z,13.72
2022-09-04T00:30:19.743Z,13.74
2022-09-04T00:32:55.838Z,13.65
2022-09-04T00:35:30.718Z,13.63
2022-09-04T00:38:05.092Z,13.67
2022-09-04T00:40:35.728Z,13.67
2022-09-04T00:43:36.144Z,13.68
2022-09-04T00:46:43.355Z,13.68
2022-09-04T00:49:36.448Z,13.69
2022-09-04T00:52:15.216Z,13.71
2022-09-04T00:54:53.354Z,13.71
2022-09-04T00:57:49.962Z,13.67
2022-09-04T01:00:20.687Z,13.67
2022-09-04T01:03:14.611Z,13.63
2022-09-04T01:05:59.842Z,13.64
2022-09-04T01:08:42.657Z,13.72
2022-09-04T01:11:15.836Z,13.77
2022-09-04T01:13:52.070Z,13.72
2022-09-04T01:16:27.513Z,13.73
2022-09-04T01:19:00.222Z,13.76
2022-09-04T01:22:01.316Z,13.75
2022-09-04T01:24:52.815Z,13.70
2022-09-04T01:27:28.210Z,13.69
2022-09-04T01:30:05.373Z,13.70
2022-09-04T01:32:43.162Z,13.75
2022-09-04T01:35:23.108Z,13.76
2022-09-04T01:38:01.069Z,13.76
2022-09-04T01:40:39.416Z,13.77
2022-09-04T01:43:12.011Z,13.76
2022-09-04T01:46:10.338Z,13.79
2022-09-04T01:48:46.901Z,13.73
2022-09-04T01:51:21.410Z,13.72
2022-09-04T01:54:03.816Z,13.69
2022-09-04T01:56:39.754Z,13.65
2022-09-04T01:59:20.939Z,13.66
2022-09-04T02:01:55.392Z,13.56
2022-09-04T02:04:29.755Z,13.52
2022-09-04T02:07:04.766Z,13.44
2022-09-04T02:09:38.743Z,13.38
2022-09-04T02:12:22.226Z,13.35
2022-09-04T02:15:04.237Z,13.36
2022-09-04T02:17:43.393Z,13.36
2022-09-04T02:20:24.448Z,13.35
2022-09-04T02:23:05.517Z,13.38
2022-09-04T02:25:39.296Z,13.36
2022-09-04T02:28:23.193Z,13.23
2022-09-04T02:31:01.179Z,13.20
2022-09-04T02:33:36.691Z,13.14
2022-09-04T02:36:14.229Z,13.13
2022-09-04T02:38:52.539Z,13.14
2022-09-04T02:41:30.229Z,13.14
2022-09-04T02:44:16.358Z,13.12
2022-09-04T02:46:56.812Z,13.10
2022-09-04T02:49:35.832Z,13.09
2022-09-04T02:52:16.494Z,13.03
2022-09-04T02:54:57.563Z,12.99
2022-09-04T02:57:33.802Z,12.92
2022-09-04T03:00:08.122Z,12.89
2022-09-04T03:02:43.158Z,12.90
2022-09-04T03:05:20.377Z,12.87
2022-09-04T03:07:57.327Z,12.81
2022-09-04T03:10:31.791Z,12.74
2022-09-04T03:13:05.922Z,12.69
2022-09-04T03:15:39.864Z,12.70
2022-09-04T03:18:17.519Z,12.68
2022-09-04T03:20:52.372Z,12.67
2022-09-04T03:23:24.712Z,12.66
2022-09-04T03:26:19.274Z,12.69
2022-09-04T03:29:00.974Z,12.67
2022-09-04T03:31:34.187Z,12.64
2022-09-04T03:34:27.383Z,12.66
2022-09-04T03:37:33.972Z,12.63
2022-09-04T03:40:19.015Z,12.57
2022-09-04T03:43:02.933Z,12.59
2022-09-04T03:45:40.831Z,12.60
2022-09-04T03:48:21.170Z,12.56
2022-09-04T03:50:58.143Z,12.52
2022-09-04T03:53:33.544Z,12.53
2022-09-04T03:56:26.371Z,12.54
2022-09-04T03:59:03.002Z,12.46
2022-09-04T04:01:48.297Z,12.46
2022-09-04T04:04:35.188Z,12.43
2022-09-04T04:07:13.714Z,12.40
2022-09-04T04:09:55.615Z,12.39
2022-09-04T04:12:42.681Z,12.37
2022-09-04T04:15:33.635Z,12.36
2022-09-04T04:18:18.608Z,12.28
2022-09-04T04:20:54.195Z,12.23
2022-09-04T04:23:56.803Z,12.22
2022-09-04T04:26:40.712Z,12.20
2022-09-04T04:29:37.914Z,12.16
2022-09-04T04:32:25.475Z,12.14
2022-09-04T04:35:13.102Z,12.15
2022-09-04T04:37:51.931Z,12.14
2022-09-04T04:40:33.367Z,12.14
2022-09-04T04:43:13.979Z,12.14
2022-09-04T04:45:50.545Z,12.11
2022-09-04T04:48:41.797Z,12.09
2022-09-04T04:51:26.350Z,12.08
2022-09-04T04:53:59.250Z,12.14
2022-09-04T04:56:36.006Z,12.15
2022-09-04T04:59:20.504Z,12.12
2022-09-04T05:01:57.516Z,12.12
2022-09-04T05:04:37.410Z,12.12
2022-09-04T05:07:14.210Z,12.19
2022-09-04T05:09:48.840Z,12.17
2022-09-04T05:12:28.576Z,12.24
2022-09-04T05:15:01.202Z,12.28
2022-09-04T05:17:40.355Z,12.30
2022-09-04T05:20:35.905Z,12.34
2022-09-04T05:23:16.056Z,12.42
2022-09-04T05:25:51.815Z,12.51
2022-09-04T05:28:32.691Z,12.60
2022-09-04T05:31:13.238Z,12.69
2022-09-04T05:33:51.547Z,12.77
2022-09-04T05:36:25.583Z,12.86
2022-09-04T05:39:04.523Z,12.95
2022-09-04T05:41:43.090Z,13.03
2022-09-04T05:44:30.900Z,13.10
2022-09-04T05:47:09.990Z,13.17
2022-09-04T05:49:55.575Z,13.23
2022-09-04T05:52:45.635Z,13.31
2022-09-04T05:55:37.575Z,13.40
2022-09-04T05:58:26.034Z,13.46
2022-09-04T06:01:08.056Z,13.55
2022-09-04T06:03:59.184Z,13.65
2022-09-04T06:06:37.616Z,13.72
2022-09-04T06:09:28.451Z,13.75
2022-09-04T06:12:30.094Z,13.81
2022-09-04T06:15:22.796Z,13.89
2022-09-04T06:18:14.640Z,13.95
2022-09-04T06:21:07.226Z,14.00
2022-09-04T06:23:59.047Z,14.09
2022-09-04T06:26:44.847Z,14.14
2022-09-04T06:29:34.408Z,14.20
2022-09-04T06:32:35.163Z,14.28
2022-09-04T06:35:23.947Z,14.37
2022-09-04T06:38:07.811Z,14.45
2022-09-04T06:40:49.696Z,14.53
2022-09-04T06:43:29.745Z,14.60
2022-09-04T06:46:08.919Z,14.66
2022-09-04T06:48:49.371Z,14.73
2022-09-04T06:51:32.651Z,14.84
2022-09-04T06:54:12.472Z,14.91
2022-09-04T06:56:55.796Z,14.99
2022-09-04T06:59:48.980Z,15.06
2022-09-04T07:02:28.786Z,15.18
2022-09-04T07:05:12.388Z,15.27
2022-09-04T07:07:52.504Z,15.37
2022-09-04T07:10:25.716Z,15.44
2022-09-04T07:13:40.388Z,15.54
2022-09-04T07:16:21.757Z,15.66
2022-09-04T07:19:07.788Z,15.79
2022-09-04T07:21:45.618Z,15.89
2022-09-04T07:24:41.143Z,16.03
2022-09-04T07:27:15.970Z,16.14
2022-09-04T07:29:51.062Z,16.25
2022-09-04T07:32:24.499Z,16.37
2022-09-04T07:34:58.621Z,16.45
2022-09-04T07:37:36.636Z,16.55
2022-09-04T07:40:13.797Z,16.62
2022-09-04T07:42:51.003Z,16.71
2022-09-04T07:45:30.231Z,16.80
2022-09-04T07:48:12.137Z,16.91
2022-09-04T07:50:49.045Z,16.99
2022-09-04T07:53:28.771Z,17.11
2022-09-04T07:56:02.039Z,17.22
2022-09-04T07:59:04.921Z,17.29
2022-09-04T08:02:06.795Z,17.43
2022-09-04T08:04:54.391Z,17.56
2022-09-04T08:07:47.884Z,17.66
2022-09-04T08:10:27.076Z,17.77
2022-09-04T08:13:22.843Z,17.89
2022-09-04T08:15:57.756Z,17.98
2022-09-04T08:18:44.988Z,18.07
2022-09-04T08:21:21.424Z,18.16
2022-09-04T08:24:20.267Z,18.29
2022-09-04T08:27:03.998Z,18.47
2022-09-04T08:29:51.683Z,18.69
2022-09-04T08:32:38.199Z,18.85
2022-09-04T08:35:22.455Z,18.93
2022-09-04T08:38:03.333Z,19.08
2022-09-04T08:41:06.832Z,19.18
2022-09-04T08:44:12.564Z,19.29
2022-09-04T08:47:11.160Z,19.45
2022-09-04T08:50:09.415Z,19.53
2022-09-04T08:53:09.124Z,19.73
2022-09-04T08:55:48.319Z,19.95
2022-09-04T08:58:56.283Z,20.10
2022-09-04T09:01:57.119Z,20.30
2022-09-04T09:04:58.212Z,20.39
2022-09-04T09:08:06.008Z,20.56
2022-09-04T09:10:40.190Z,20.57
2022-09-04T09:13:40.684Z,20.61
2022-09-04T09:16:21.648Z,20.81
2022-09-04T09:19:19.500Z,21.08
2022-09-04T09:21:55.491Z,21.17
2022-09-04T09:24:48.357Z,21.29
2022-09-04T09:27:42.748Z,21.41
2022-09-04T09:30:17.513Z,21.68
2022-09-04T09:33:18.216Z,21.86
2022-09-04T09:36:36.661Z,22.05
2022-09-04T09:39:37.393Z,22.21
2022-09-04T09:42:48.618Z,22.48
2022-09-04T09:45:43.833Z,22.67
2022-09-04T09:48:44.059Z,22.96
2022-09-04T09:51:47.411Z,23.12
2022-09-04T09:54:52.156Z,23.33
2022-09-04T09:57:47.716Z,23.47
2022-09-04T10:00:17.248Z,23.76
2022-09-04T10:03:24.378Z,24.04
2022-09-04T10:06:31.655Z,24.41
2022-09-04T10:09:38.171Z,24.17
2022-09-04T10:12:35.558Z,24.35
2022-09-04T10:15:37.602Z,24.35
2022-09-04T10:18:32.548Z,24.50
2022-09-04T10:21:23.551Z,24.64
2022-09-04T10:24:10.576Z,24.95
2022-09-04T10:27:11.060Z,25.05
2022-09-04T10:29:56.867Z,25.10
2022-09-04T10:32:49.023Z,25.33
2022-09-04T10:35:25.249Z,25.48
2022-09-04T10:38:16.191Z,25.53
2022-09-04T10:41:10.829Z,25.79
2022-09-04T10:43:53.753Z,26.23
2022-09-04T10:46:27.410Z,26.72
2022-09-04T10:49:18.551Z,27.20
2022-09-04T10:52:21.721Z,27.05
2022-09-04T10:55:14.806Z,27.07
2022-09-04T10:57:54.855Z,27.01
2022-09-04T11:00:23.938Z,27.03
2022-09-04T11:03:29.756Z,26.73
2022-09-04T11:06:26.418Z,27.08
2022-09-04T11:09:14.416Z,27.56
2022-09-04T11:12:16.531Z,27.72
2022-09-04T11:15:14.896Z,27.83
2022-09-04T11:18:11.753Z,27.53
2022-09-04T11:21:21.041Z,27.57
2022-09-04T11:24:28.235Z,27.83
2022-09-04T11:27:22.891Z,28.26
2022-09-04T11:30:03.687Z,28.59
2022-09-04T11:33:07.853Z,28.55
2022-09-04T11:36:18.880Z,28.46
2022-09-04T11:39:30.041Z,28.57
2022-09-04T11:42:40.048Z,28.26
2022-09-04T11:45:49.978Z,28.32
2022-09-04T11:48:48.483Z,28.06
2022-09-04T11:51:41.856Z,27.68
2022-09-04T11:54:23.450Z,27.26
2022-09-04T11:57:05.687Z,26.91
2022-09-04T11:59:48.907Z,27.13
2022-09-04T12:02:36.166Z,27.69
2022-09-04T12:05:24.809Z,28.10
2022-09-04T12:08:14.244Z,28.41
2022-09-04T12:11:01.322Z,28.56
2022-09-04T12:13:43.897Z,28.20
2022-09-04T12:16:54.216Z,28.08
2022-09-04T12:19:50.339Z,28.15
2022-09-04T12:22:43.504Z,28.31
2022-09-04T12:25:40.039Z,28.54
2022-09-04T12:28:40.727Z,28.66
2022-09-04T12:31:51.473Z,28.72
2022-09-04T12:34:49.399Z,28.75
2022-09-04T12:37:37.611Z,29.00
2022-09-04T12:40:34.335Z,28.91
2022-09-04T12:43:16.342Z,28.76
2022-09-04T12:45:51.169Z,29.08
2022-09-04T12:48:32.845Z,29.00
2022-09-04T12:51:09.792Z,29.26
2022-09-04T12:53:55.073Z,29.44
2022-09-04T12:56:31.397Z,29.36
2022-09-04T12:59:19.575Z,29.36
2022-09-04T13:02:00.463Z,29.29
2022-09-04T13:04:36.712Z,29.25
2022-09-04T13:07:22.792Z,29.49
2022-09-04T13:09:59.248Z,29.49
2022-09-04T13:12:39.149Z,29.36
2022-09-04T13:15:19.453Z,29.45
2022-09-04T13:17:59.257Z,29.65
2022-09-04T13:20:36.031Z,29.65
2022-09-04T13:23:37.054Z,29.70
2022-09-04T13:26:20.888Z,29.63
2022-09-04T13:28:56.897Z,29.54
2022-09-04T13:31:38.219Z,29.65
2022-09-04T13:34:18.490Z,29.55
2022-09-04T13:37:04.245Z,30.13
2022-09-04T13:39:54.449Z,30.27
2022-09-04T13:42:48.613Z,29.99
2022-09-04T13:45:23.387Z,29.56
2022-09-04T13:47:58.132Z,29.48
2022-09-04T13:50:32.188Z,29.39
2022-09-04T13:53:11.027Z,29.31
2022-09-04T13:55:41.038Z,29.52
2022-09-04T13:58:15.195Z,29.62
2022-09-04T14:00:47.125Z,29.74
2022-09-04T14:03:31.830Z,29.60
2022-09-04T14:06:00.824Z,29.41
2022-09-04T14:08:31.218Z,28.88
2022-09-04T14:11:25.635Z,29.04
2022-09-04T14:14:10.944Z,29.11
2022-09-04T14:16:41.609Z,29.08
2022-09-04T14:19:20.219Z,29.13
2022-09-04T14:22:03.438Z,28.97
2022-09-04T14:24:38.544Z,29.04
2022-09-04T14:27:18.576Z,28.85
2022-09-04T14:29:58.471Z,28.61
2022-09-04T14:32:38.097Z,28.61
2022-09-04T14:35:15.059Z,28.41
2022-09-04T14:38:02.279Z,28.44
2022-09-04T14:40:34.491Z,28.08
2022-09-04T14:43:11.027Z,28.05
2022-09-04T14:46:02.556Z,28.08
2022-09-04T14:48:33.581Z,28.14
2022-09-04T14:51:15.199Z,28.10
2022-09-04T14:53:50.214Z,27.89
2022-09-04T14:56:35.607Z,27.75
2022-09-04T14:59:13.799Z,27.61
2022-09-04T15:02:01.000Z,27.18
2022-09-04T15:04:35.427Z,27.24
2022-09-04T15:07:18.185Z,27.09
2022-09-04T15:09:51.475Z,27.02
2022-09-04T15:12:25.709Z,26.96
2022-09-04T15:14:58.830Z,26.99
2022-09-04T15:17:30.399Z,27.01
2022-09-04T15:20:04.434Z,26.91
2022-09-04T15:22:41.154Z,26.78
2022-09-04T15:25:13.136Z,26.66
2022-09-04T15:27:51.973Z,26.58
2022-09-04T15:30:23.116Z,26.58
2022-09-04T15:33:03.586Z,26.61
2022-09-04T15:35:33.812Z,26.55
2022-09-04T15:38:08.251Z,26.42
2022-09-04T15:40:59.600Z,26.36
2022-09-04T15:43:42.614Z,26.33
2022-09-04T15:46:18.878Z,26.34
2022-09-04T15:48:55.030Z,26.25
2022-09-04T15:51:32.457Z,26.19
2022-09-04T15:54:29.109Z,26.12
2022-09-04T15:57:02.761Z,25.89
2022-09-04T15:59:45.417Z,25.80
2022-09-04T16:02:36.210Z,25.75
2022-09-04T16:05:10.936Z,25.59
2022-09-04T16:07:54.692Z,25.56
2022-09-04T16:10:26.808Z,25.52
2022-09-04T16:13:00.763Z,25.45
2022-09-04T16:15:33.805Z,25.40
2022-09-04T16:18:10.212Z,25.33
2022-09-04T16:20:51.262Z,25.20
2022-09-04T16:23:29.583Z,25.11
2022-09-04T16:25:59.938Z,25.04
2022-09-04T16:28:31.344Z,24.94
2022-09-04T16:31:03.433Z,24.81
2022-09-04T16:33:34.524Z,24.67
2022-09-04T16:36:08.012Z,24.46
2022-09-04T16:38:46.439Z,24.36
2022-09-04T16:41:25.451Z,24.22
2022-09-04T16:44:25.794Z,24.06
2022-09-04T16:47:04.540Z,23.82
2022-09-04T16:49:40.782Z,23.70
2022-09-04T16:52:31.806Z,23.58
2022-09-04T16:55:08.567Z,23.48
2022-09-04T16:57:43.315Z,23.27
2022-09-04T17:00:14.116Z,23.09
2022-09-04T17:02:50.820Z,22.99
2022-09-04T17:05:28.274Z,22.94
2022-09-04T17:08:02.582Z,22.86
2022-09-04T17:10:41.443Z,22.80
2022-09-04T17:13:17.373Z,22.68
2022-09-04T17:15:54.377Z,22.66
2022-09-04T17:18:26.093Z,22.57
2022-09-04T17:24:25.200Z,22.51
2022-09-04T17:29:03.674Z,22.39
2022-09-04T17:29:16.889Z,22.31
2022-09-04T17:29:47.081Z,22.15
2022-09-04T17:32:38.295Z,22.10
2022-09-04T17:40:42.889Z,22.00
2022-09-04T17:40:50.563Z,21.81
2022-09-04T17:41:40.706Z,21.58
2022-09-04T17:44:28.166Z,21.32
2022-09-04T17:47:10.038Z,21.20
2022-09-04T17:49:43.581Z,20.99
2022-09-04T17:52:26.839Z,20.88
2022-09-04T17:54:59.625Z,20.84
2022-09-04T17:57:39.038Z,20.79
2022-09-04T18:00:20.179Z,20.71
2022-09-04T18:02:56.942Z,20.61
2022-09-04T18:05:30.136Z,20.38
2022-09-04T18:08:10.566Z,20.29
2022-09-04T18:10:51.862Z,20.16
2022-09-04T18:13:37.851Z,19.99
2022-09-04T18:16:20.350Z,19.90
2022-09-04T18:18:52.812Z,19.87
2022-09-04T18:21:26.163Z,19.85
2022-09-04T18:24:03.139Z,19.69
2022-09-04T18:26:40.954Z,19.58
2022-09-04T18:32:25.268Z,19.45
2022-09-04T18:37:06.362Z,19.38
2022-09-04T18:37:23.206Z,19.25
2022-09-04T18:38:36.666Z,19.22
2022-09-04T18:49:00.382Z,19.10
2022-09-04T18:50:20.927Z,18.99
2022-09-04T18:50:38.246Z,18.92
2022-09-04T18:50:43.935Z,18.83
2022-09-04T18:53:01.850Z,18.85
2022-09-04T18:55:35.010Z,18.76
2022-09-04T18:58:37.965Z,18.63
2022-09-04T19:01:14.270Z,18.51
2022-09-04T19:03:46.943Z,18.50
2022-09-04T19:06:18.443Z,18.46
2022-09-04T19:08:50.933Z,18.45
2022-09-04T19:11:25.884Z,18.39
2022-09-04T19:14:00.731Z,18.38
2022-09-04T19:16:43.939Z,18.35
2022-09-04T19:19:20.529Z,18.41
2022-09-04T19:21:57.946Z,18.30
2022-09-04T19:24:36.109Z,18.24
2022-09-04T19:27:21.971Z,18.24
2022-09-04T19:30:19.458Z,18.13
2022-09-04T19:33:16.424Z,18.13
2022-09-04T19:35:49.829Z,18.04
2022-09-04T19:44:33.207Z,18.01
2022-09-04T19:46:15.504Z,17.93
2022-09-04T19:46:19.779Z,17.96
2022-09-04T19:47:28.515Z,17.88
2022-09-04T19:53:23.934Z,17.79
2022-09-04T19:53:31.293Z,17.69
2022-09-04T19:56:00.204Z,17.71
2022-09-04T19:58:35.568Z,17.59
2022-09-04T20:01:06.718Z,17.61
2022-09-04T20:03:46.392Z,17.44
2022-09-04T20:06:22.813Z,17.45
2022-09-04T20:08:59.995Z,17.45
2022-09-04T20:11:35.733Z,17.48
2022-09-04T20:14:14.313Z,17.38
2022-09-04T20:16:52.737Z,17.33
2022-09-04T20:19:28.411Z,17.22
2022-09-04T20:22:03.551Z,17.12
2022-09-04T20:24:39.781Z,17.10
2022-09-04T20:27:15.768Z,17.06
2022-09-04T20:29:50.431Z,16.98
2022-09-04T20:32:27.556Z,17.01
2022-09-04T20:35:13.462Z,16.94
2022-09-04T20:37:48.676Z,16.96
2022-09-04T20:40:27.363Z,16.94
2022-09-04T20:43:14.579Z,16.84
2022-09-04T20:50:06.812Z,16.83
2022-09-04T20:52:53.164Z,16.81
2022-09-04T20:52:58.241Z,16.81
2022-09-04T20:55:10.589Z,16.75
2022-09-04T21:02:54.654Z,16.75
2022-09-04T21:03:18.289Z,16.68
2022-09-04T21:04:05.849Z,16.61
2022-09-04T21:06:43.304Z,16.55
2022-09-04T21:09:33.115Z,16.53
2022-09-04T21:12:15.564Z,16.50
2022-09-04T21:14:47.234Z,16.49
2022-09-04T21:17:39.104Z,16.51
2022-09-04T21:21:00.618Z,16.37
2022-09-04T21:24:03.224Z,16.33
2022-09-04T21:26:50.847Z,16.50
2022-09-04T21:29:33.435Z,16.46
2022-09-04T21:32:31.089Z,16.36
2022-09-04T21:35:10.879Z,16.27
2022-09-04T21:37:48.566Z,16.25
2022-09-04T21:40:54.907Z,16.24
2022-09-04T21:43:38.307Z,16.22
2022-09-04T21:46:40.819Z,16.22
2022-09-04T21:49:29.425Z,16.22
2022-09-04T21:52:12.463Z,16.13
2022-09-04T21:58:04.971Z,16.01
2022-09-04T22:02:30.010Z,15.88
2022-09-04T22:02:35.358Z,15.88
2022-09-04T22:04:14.193Z,15.92
2022-09-04T22:10:25.070Z,15.86
2022-09-04T22:13:38.966Z,15.80
2022-09-04T22:13:42.732Z,15.85
2022-09-04T22:16:26.018Z,15.77
2022-09-04T22:19:16.279Z,15.75
2022-09-04T22:22:03.695Z,15.68
2022-09-04T22:25:06.609Z,15.70
2022-09-04T22:28:08.969Z,15.67
2022-09-04T22:30:53.385Z,15.66
2022-09-04T22:33:48.464Z,15.58
2022-09-04T22:37:01.227Z,15.69
2022-09-04T22:39:58.677Z,15.73
2022-09-04T22:42:38.107Z,15.50
2022-09-04T22:45:31.200Z,15.49
2022-09-04T22:48:26.712Z,15.42
2022-09-04T22:51:09.408Z,15.36
2022-09-04T22:53:52.181Z,15.42
2022-09-04T22:56:31.288Z,15.48
2022-09-04T22:59:26.248Z,15.47
2022-09-04T23:03:06.695Z,15.40
2022-09-04T23:05:46.559Z,15.36
2022-09-04T23:13:45.006Z,15.35
2022-09-04T23:13:53.398Z,15.25
2022-09-04T23:14:40.223Z,15.20
2022-09-04T23:17:29.298Z,15.18
2022-09-04T23:26:35.159Z,15.12
2022-09-04T23:26:42.855Z,15.05
2022-09-04T23:26:59.942Z,15.02
2022-09-04T23:30:10.354Z,14.95
2022-09-04T23:33:27.054Z,14.93
2022-09-04T23:36:10.560Z,14.96
2022-09-04T23:38:58.848Z,14.90
2022-09-04T23:41:53.162Z,14.83
2022-09-04T23:44:49.300Z,14.73
2022-09-04T23:47:48.391Z,14.71
2022-09-04T23:50:31.122Z,14.71
2022-09-04T23:53:08.996Z,14.64
2022-09-04T23:56:04.360Z,14.60
2022-09-04T23:59:21.357Z,14.64
